This is the latest recevied weather packets stored in our database for station/object KC4JES. If no packets are shown the sender has not sent any weather packets the latest 10 day(s).
| Time | Temp. | Humidity | Pressure | Rain* | Wind** | Luminosity | Snow |
|---|---|---|---|---|---|---|---|
| 1777488282 | 31.67° C | 51% | 1013.7 hPa | 0 mm | - | 223 W/m² | - |
| 1777487980 | 31.11° C | 52% | 1013.9 hPa | 0 mm | - | 970 W/m² | - |
| 1777487677 | 31.11° C | 54% | 1013.7 hPa | 0 mm | - | 432 W/m² | - |
| 1777487374 | 31.67° C | 51% | 1013.7 hPa | 0 mm | - | 303 W/m² | - |
| 1777487072 | 31.67° C | 51% | 1014.1 hPa | 0 mm | - | 355 W/m² | - |
| 1777486767 | 32.22° C | 51% | 1014.1 hPa | 0 mm | - | 652 W/m² | - |
| 1777486466 | 31.67° C | 53% | 1014.4 hPa | 0 mm | - | 565 W/m² | - |
| 1777486163 | 31.67° C | 53% | 1014.4 hPa | 0 mm | - | 621 W/m² | - |
| 1777485860 | 31.11° C | 53% | 1014.6 hPa | 0 mm | - | 159 W/m² | - |
| 1777485560 | 30.56° C | 55% | 1014.8 hPa | 0 mm | - | 271 W/m² | - |
| 1777485257 | 30° C | 58% | 1014.6 hPa | 0 mm | - | 167 W/m² | - |
| 1777484953 | 30.56° C | 55% | 1014.7 hPa | 0 mm | - | 172 W/m² | - |
| 1777484650 | 30.56° C | 56% | 1015 hPa | 0 mm | - | 191 W/m² | - |
| 1777484347 | 30.56° C | 54% | 1014.9 hPa | 0 mm | - | 194 W/m² | - |
| 1777484042 | 31.11° C | 53% | 1015.1 hPa | 0 mm | - | 174 W/m² | - |
| 1777483739 | 31.11° C | 54% | 1015.1 hPa | 0 mm | - | 130 W/m² | - |
| 1777483435 | 31.11° C | 54% | 1015.1 hPa | 0 mm | - | 75 W/m² | - |
| 1777483130 | 31.11° C | 52% | 1015.1 hPa | 0 mm | - | 63 W/m² | - |
| 1777482828 | 31.11° C | 54% | 1015.1 hPa | 0 mm | - | 67 W/m² | - |
| 1777482523 | 31.11° C | 54% | 1015.4 hPa | 0 mm | - | 69 W/m² | - |
| 1777482221 | 31.11° C | 53% | 1015.6 hPa | 0 mm | - | 69 W/m² | - |
| 1777481918 | 30.56° C | 59% | 1015.6 hPa | 0 mm | - | 60 W/m² | - |
| 1777481616 | 30.56° C | 56% | 1015.7 hPa | 0 mm | - | 61 W/m² | - |
| 1777481313 | 30.56° C | 56% | 1015.7 hPa | 0 mm | - | 68 W/m² | - |
| 1777481009 | 30° C | 60% | 1015.8 hPa | 0 mm | - | 76 W/m² | - |
* Rain latest hour (hover to see other rain measurements)
** Current wind speed in m/s (hover to see current wind gust speed)